createdAt,value
2023-02-14T00:00:05.859Z,146.60
2023-02-14T00:02:11.122Z,143.95
2023-02-14T00:04:14.167Z,123.20
2023-02-14T00:06:16.830Z,135.65
2023-02-14T00:08:19.264Z,133.07
2023-02-14T00:10:21.730Z,134.20
2023-02-14T00:12:24.109Z,131.50
2023-02-14T00:14:44.886Z,127.55
2023-02-14T00:16:47.748Z,134.77
2023-02-14T00:19:05.445Z,145.80
2023-02-14T00:21:07.894Z,144.33
2023-02-14T00:23:10.337Z,141.25
2023-02-14T00:25:12.942Z,153.90
2023-02-14T00:27:15.404Z,155.15
2023-02-14T00:29:24.138Z,150.68
2023-02-14T00:31:26.743Z,167.97
2023-02-14T00:33:29.285Z,180.55
2023-02-14T00:35:31.715Z,179.65
2023-02-14T00:37:34.513Z,168.23
2023-02-14T00:39:36.959Z,170.65
2023-02-14T00:41:40.160Z,156.13
2023-02-14T00:43:42.563Z,155.23
2023-02-14T00:45:44.993Z,154.60
2023-02-14T00:47:47.505Z,151.00
2023-02-14T00:49:49.879Z,142.13
2023-02-14T00:51:52.326Z,159.13
2023-02-14T00:53:55.143Z,151.18
2023-02-14T00:55:57.564Z,140.38
2023-02-14T00:57:59.998Z,147.20
2023-02-14T01:00:02.491Z,151.38
2023-02-14T01:02:04.993Z,144.43
2023-02-14T01:04:07.923Z,147.73
2023-02-14T01:06:10.519Z,141.70
2023-02-14T01:08:12.886Z,142.20
2023-02-14T01:10:15.295Z,145.07
2023-02-14T01:12:17.706Z,146.87
2023-02-14T01:14:20.123Z,140.73
2023-02-14T01:16:23.851Z,145.57
2023-02-14T01:18:26.357Z,148.00
2023-02-14T01:20:28.981Z,159.65
2023-02-14T01:22:36.609Z,147.83
2023-02-14T01:24:39.009Z,151.93
2023-02-14T01:26:41.413Z,154.55
2023-02-14T01:28:44.114Z,148.68
2023-02-14T01:30:46.579Z,164.05
2023-02-14T01:32:49.026Z,166.23
2023-02-14T01:34:51.451Z,148.40
2023-02-14T01:36:53.978Z,152.00
2023-02-14T01:38:59.169Z,153.90
2023-02-14T01:41:01.739Z,150.05
2023-02-14T01:43:04.720Z,149.23
2023-02-14T01:45:19.718Z,148.95
2023-02-14T01:47:22.868Z,138.80
2023-02-14T01:49:29.598Z,147.10
2023-02-14T01:51:33.648Z,149.40
2023-02-14T01:53:36.083Z,150.97
2023-02-14T01:55:41.994Z,146.68
2023-02-14T01:58:05.442Z,150.25
2023-02-14T02:00:28.238Z,129.45
2023-02-14T02:02:30.908Z,118.28
2023-02-14T02:04:36.685Z,105.10
2023-02-14T02:06:42.019Z,105.65
2023-02-14T02:08:56.188Z,108.88
2023-02-14T02:10:58.896Z,106.40
2023-02-14T02:13:06.156Z,95.15
2023-02-14T02:15:09.303Z,97.90
2023-02-14T02:17:17.190Z,105.38
2023-02-14T02:19:41.250Z,102.82
2023-02-14T02:22:19.021Z,97.80
2023-02-14T02:24:32.233Z,102.43
2023-02-14T02:26:43.486Z,101.50
2023-02-14T02:29:03.949Z,106.50
2023-02-14T02:31:32.893Z,101.68
2023-02-14T02:33:59.544Z,93.97
2023-02-14T02:36:11.064Z,99.95
2023-02-14T02:38:48.293Z,104.63
2023-02-14T02:41:09.146Z,98.95
2023-02-14T02:43:49.679Z,106.57
2023-02-14T02:46:29.447Z,96.15
2023-02-14T02:49:06.613Z,101.60
2023-02-14T02:51:35.084Z,93.83
2023-02-14T02:53:51.890Z,105.18
2023-02-14T02:56:35.216Z,98.72
2023-02-14T02:58:47.175Z,95.22
2023-02-14T03:00:51.931Z,97.65
2023-02-14T03:03:15.486Z,113.47
2023-02-14T03:05:17.905Z,125.97
2023-02-14T03:07:36.634Z,148.93
2023-02-14T03:09:41.851Z,165.68
2023-02-14T03:11:51.958Z,168.20
2023-02-14T03:14:14.148Z,183.27
2023-02-14T03:16:38.727Z,176.70
2023-02-14T03:19:18.258Z,172.05
2023-02-14T03:21:35.657Z,163.70
2023-02-14T03:23:45.293Z,161.65
2023-02-14T03:26:12.461Z,140.43
2023-02-14T03:28:27.458Z,129.48
2023-02-14T03:30:59.112Z,137.18
2023-02-14T03:33:08.908Z,132.55
2023-02-14T03:35:11.343Z,137.13
2023-02-14T03:37:19.524Z,128.53
2023-02-14T03:39:26.648Z,119.97
2023-02-14T03:41:34.188Z,127.35
2023-02-14T03:43:43.510Z,122.88
2023-02-14T03:46:23.312Z,118.57
2023-02-14T03:48:27.464Z,115.23
2023-02-14T03:50:31.626Z,112.22
2023-02-14T03:52:35.642Z,121.03
2023-02-14T03:54:38.228Z,116.85
2023-02-14T03:57:12.548Z,105.32
2023-02-14T03:59:17.326Z,103.60
2023-02-14T04:01:30.875Z,109.00
2023-02-14T04:03:34.414Z,110.22
2023-02-14T04:05:38.553Z,105.60
2023-02-14T04:07:51.603Z,104.28
2023-02-14T04:09:54.026Z,108.70
2023-02-14T04:11:56.390Z,104.53
2023-02-14T04:13:58.762Z,103.18
2023-02-14T04:16:01.231Z,102.07
2023-02-14T04:18:22.280Z,105.45
2023-02-14T04:20:25.222Z,97.50
2023-02-14T04:22:27.806Z,97.20
2023-02-14T04:24:30.249Z,101.97
2023-02-14T04:26:32.645Z,105.97
2023-02-14T04:28:35.195Z,101.03
2023-02-14T04:30:37.629Z,102.40
2023-02-14T04:32:41.656Z,107.65
2023-02-14T04:34:44.310Z,104.32
2023-02-14T04:36:46.684Z,92.88
2023-02-14T04:38:49.092Z,113.90
2023-02-14T04:40:51.917Z,102.40
2023-02-14T04:42:54.369Z,98.10
2023-02-14T04:44:56.888Z,95.18
2023-02-14T04:46:59.309Z,90.75
2023-02-14T04:49:01.697Z,97.85
2023-02-14T04:51:04.219Z,92.63
2023-02-14T04:53:06.624Z,97.13
2023-02-14T04:55:09.889Z,99.00
2023-02-14T04:57:12.258Z,87.70
2023-02-14T04:59:14.823Z,87.75
2023-02-14T05:01:17.278Z,85.83
2023-02-14T05:03:19.657Z,85.70
2023-02-14T05:05:22.036Z,75.93
2023-02-14T05:07:24.534Z,85.82
2023-02-14T05:09:27.083Z,89.38
2023-02-14T05:11:30.245Z,89.03
2023-02-14T05:13:32.735Z,86.13
2023-02-14T05:15:37.484Z,97.00
2023-02-14T05:17:41.015Z,85.18
2023-02-14T05:19:43.436Z,95.07
2023-02-14T05:21:45.970Z,94.60
2023-02-14T05:23:48.433Z,99.78
2023-02-14T05:25:51.648Z,101.20
2023-02-14T05:27:54.895Z,97.05
2023-02-14T05:29:57.317Z,103.82
2023-02-14T05:31:59.838Z,102.90
2023-02-14T05:34:02.302Z,95.53
2023-02-14T05:36:05.118Z,111.15
2023-02-14T05:38:07.592Z,96.90
2023-02-14T05:40:13.445Z,101.22
2023-02-14T05:42:16.073Z,104.20
2023-02-14T05:44:18.544Z,105.43
2023-02-14T05:46:21.040Z,120.32
2023-02-14T05:48:23.862Z,104.22
2023-02-14T05:50:26.305Z,103.15
2023-02-14T05:52:28.683Z,108.10
2023-02-14T05:54:31.085Z,105.95
2023-02-14T05:56:33.522Z,120.63
2023-02-14T05:58:36.188Z,121.57
2023-02-14T06:00:40.936Z,123.47
2023-02-14T06:02:43.609Z,132.00
2023-02-14T06:04:46.109Z,150.77
2023-02-14T06:06:48.652Z,144.60
2023-02-14T06:08:51.060Z,146.85
2023-02-14T06:10:53.664Z,127.70
2023-02-14T06:12:56.470Z,127.60
2023-02-14T06:14:58.894Z,127.13
2023-02-14T06:17:01.398Z,138.45
2023-02-14T06:19:03.918Z,125.43
2023-02-14T06:21:06.607Z,126.32
2023-02-14T06:23:09.091Z,134.20
2023-02-14T06:25:11.574Z,128.68
2023-02-14T06:27:13.979Z,99.05
2023-02-14T06:29:17.892Z,125.75
2023-02-14T06:31:20.463Z,125.20
2023-02-14T06:33:22.989Z,182.10
2023-02-14T06:35:25.472Z,140.60
2023-02-14T06:37:27.952Z,111.45
2023-02-14T06:39:30.296Z,109.20
2023-02-14T06:41:32.680Z,110.18
2023-02-14T06:43:35.625Z,108.50
2023-02-14T06:45:38.111Z,96.45
2023-02-14T06:47:40.639Z,100.72
2023-02-14T06:49:43.089Z,85.90
2023-02-14T06:51:45.598Z,88.00
2023-02-14T06:53:48.021Z,95.07
2023-02-14T06:55:50.705Z,86.10
2023-02-14T06:57:53.104Z,86.57
2023-02-14T06:59:55.524Z,79.68
2023-02-14T07:01:58.024Z,90.55
2023-02-14T07:04:00.427Z,80.67
2023-02-14T07:06:03.011Z,76.90
2023-02-14T07:08:07.272Z,75.65
2023-02-14T07:10:12.120Z,65.78
2023-02-14T07:12:14.788Z,59.47
2023-02-14T07:14:17.232Z,58.87
2023-02-14T07:16:19.698Z,48.40
2023-02-14T07:18:22.165Z,45.28
2023-02-14T07:20:24.909Z,48.20
2023-02-14T07:22:28.623Z,43.05
2023-02-14T07:24:31.935Z,39.93
2023-02-14T07:26:34.334Z,38.88
2023-02-14T07:28:36.778Z,38.53
2023-02-14T07:30:39.216Z,38.75
2023-02-14T07:32:41.988Z,46.42
2023-02-14T07:34:44.725Z,42.90
2023-02-14T07:36:47.209Z,44.05
2023-02-14T07:38:49.742Z,48.28
2023-02-14T07:40:54.340Z,43.10
2023-02-14T07:42:58.419Z,45.58
2023-02-14T07:45:09.376Z,44.03
2023-02-14T07:47:21.925Z,48.33
2023-02-14T07:49:24.397Z,38.40
2023-02-14T07:51:26.971Z,36.78
2023-02-14T07:53:29.449Z,37.05
2023-02-14T07:55:31.881Z,34.17
2023-02-14T07:57:34.402Z,36.60
2023-02-14T07:59:36.786Z,34.05
2023-02-14T08:01:39.339Z,37.70
2023-02-14T08:03:44.550Z,42.05
2023-02-14T08:05:57.406Z,76.63
2023-02-14T08:07:59.890Z,81.25
2023-02-14T08:10:02.367Z,88.68
2023-02-14T08:12:23.246Z,94.00
2023-02-14T08:14:25.651Z,82.32
2023-02-14T08:16:28.176Z,69.87
2023-02-14T08:18:31.726Z,88.43
2023-02-14T08:20:34.179Z,48.33
2023-02-14T08:22:36.709Z,86.80
2023-02-14T08:24:39.162Z,58.20
2023-02-14T08:26:41.586Z,37.73
2023-02-14T08:28:44.539Z,36.85
2023-02-14T08:30:47.279Z,32.40
2023-02-14T08:32:50.108Z,33.40
2023-02-14T08:34:52.638Z,32.05
2023-02-14T08:36:55.589Z,33.03
2023-02-14T08:38:57.989Z,30.45
2023-02-14T08:41:03.275Z,33.22
2023-02-14T08:43:08.410Z,27.17
2023-02-14T08:45:10.952Z,29.48
2023-02-14T08:47:13.474Z,27.33
2023-02-14T08:49:15.940Z,23.67
2023-02-14T08:51:18.379Z,29.38
2023-02-14T08:53:22.187Z,24.08
2023-02-14T08:55:24.646Z,28.48
2023-02-14T08:57:27.772Z,25.37
2023-02-14T08:59:30.366Z,25.92
2023-02-14T09:01:33.002Z,25.60
2023-02-14T09:03:38.119Z,26.35
2023-02-14T09:05:40.943Z,28.60
2023-02-14T09:07:43.602Z,27.77
2023-02-14T09:09:46.127Z,30.92
2023-02-14T09:11:48.935Z,32.55
2023-02-14T09:13:55.578Z,30.02
2023-02-14T09:15:58.152Z,30.98
2023-02-14T09:18:00.681Z,33.60
2023-02-14T09:20:03.878Z,30.88
2023-02-14T09:22:08.094Z,35.05
2023-02-14T09:24:10.590Z,34.75
2023-02-14T09:26:14.678Z,32.63
2023-02-14T09:28:17.177Z,32.57
2023-02-14T09:30:19.747Z,32.88
2023-02-14T09:32:22.401Z,28.40
2023-02-14T09:34:31.376Z,36.47
2023-02-14T09:36:34.143Z,26.23
2023-02-14T09:38:36.595Z,29.43
2023-02-14T09:40:39.064Z,29.95
2023-02-14T09:42:44.324Z,26.98
2023-02-14T09:44:51.790Z,28.65
2023-02-14T09:46:56.834Z,29.23
2023-02-14T09:48:59.713Z,25.83
2023-02-14T09:51:07.844Z,28.85
2023-02-14T09:53:18.681Z,25.05
2023-02-14T09:55:21.350Z,23.33
2023-02-14T09:57:52.742Z,24.33
2023-02-14T09:59:58.492Z,27.63
2023-02-14T10:02:19.430Z,21.35
2023-02-14T10:04:42.124Z,24.42
2023-02-14T10:07:09.931Z,25.05
2023-02-14T10:09:38.143Z,19.17
2023-02-14T10:11:42.060Z,19.13
2023-02-14T10:14:10.873Z,18.10
2023-02-14T10:16:27.161Z,17.38
2023-02-14T10:18:54.674Z,20.67
2023-02-14T10:20:59.654Z,19.10
2023-02-14T10:23:25.215Z,22.73
2023-02-14T10:25:32.425Z,24.70
2023-02-14T10:27:42.301Z,20.38
2023-02-14T10:29:44.880Z,22.23
2023-02-14T10:32:01.644Z,21.98
2023-02-14T10:34:18.061Z,19.70
2023-02-14T10:36:43.484Z,18.45
2023-02-14T10:39:04.456Z,19.23
2023-02-14T10:41:18.986Z,22.10
2023-02-14T10:43:40.416Z,23.63
2023-02-14T10:45:46.398Z,19.73
2023-02-14T10:48:09.479Z,22.98
2023-02-14T10:50:17.079Z,17.88
2023-02-14T10:52:30.054Z,22.65
2023-02-14T10:54:39.080Z,17.75
2023-02-14T10:56:45.466Z,19.63
2023-02-14T10:58:49.825Z,19.80
2023-02-14T11:01:29.140Z,18.83
2023-02-14T11:03:31.857Z,21.73
2023-02-14T11:05:35.177Z,23.27
2023-02-14T11:07:37.561Z,23.97
2023-02-14T11:09:39.954Z,18.10
2023-02-14T11:11:54.854Z,20.13
2023-02-14T11:13:57.295Z,20.33
2023-02-14T11:16:01.744Z,18.45
2023-02-14T11:18:24.913Z,20.17
2023-02-14T11:20:31.482Z,16.75
2023-02-14T11:22:35.511Z,16.35
2023-02-14T11:24:41.524Z,19.85
2023-02-14T11:26:47.636Z,18.27
2023-02-14T11:28:56.894Z,22.83
2023-02-14T11:30:59.980Z,17.65
2023-02-14T11:33:04.338Z,18.55
2023-02-14T11:35:18.985Z,24.40
2023-02-14T11:37:25.162Z,16.42
2023-02-14T11:39:33.305Z,19.43
2023-02-14T11:41:56.963Z,22.33
2023-02-14T11:44:22.486Z,21.25
2023-02-14T11:46:26.400Z,17.23
2023-02-14T11:48:38.145Z,18.35
2023-02-14T11:50:42.585Z,20.83
2023-02-14T11:52:57.189Z,20.50
2023-02-14T11:55:00.129Z,16.67
2023-02-14T11:57:08.883Z,19.17
2023-02-14T11:59:13.612Z,17.55
2023-02-14T12:01:25.502Z,18.07
2023-02-14T12:03:29.470Z,21.67
2023-02-14T12:05:32.888Z,18.75
2023-02-14T12:07:37.905Z,18.30
2023-02-14T12:09:42.707Z,19.95
2023-02-14T12:12:01.392Z,19.67
2023-02-14T12:14:03.882Z,20.02
2023-02-14T12:16:10.661Z,21.13
2023-02-14T12:18:41.691Z,21.10
2023-02-14T12:21:13.287Z,19.35
2023-02-14T12:23:35.894Z,18.80
2023-02-14T12:25:48.017Z,19.45
2023-02-14T12:28:01.533Z,18.42
2023-02-14T12:30:15.839Z,20.50
2023-02-14T12:32:23.872Z,20.60
2023-02-14T12:34:26.369Z,23.47
2023-02-14T12:36:54.167Z,20.48
2023-02-14T12:39:29.105Z,26.30
2023-02-14T12:41:55.437Z,19.85
2023-02-14T12:44:07.613Z,29.63
2023-02-14T12:46:14.201Z,23.70
2023-02-14T12:48:50.502Z,22.52
2023-02-14T12:51:07.997Z,25.13
2023-02-14T12:53:42.611Z,19.52
2023-02-14T12:55:57.936Z,20.00
2023-02-14T12:58:03.088Z,23.67
2023-02-14T13:00:15.095Z,21.27
2023-02-14T13:02:23.034Z,21.98
2023-02-14T13:04:44.328Z,20.85
2023-02-14T13:07:24.856Z,24.58
2023-02-14T13:09:27.661Z,22.37
2023-02-14T13:11:51.603Z,20.52
2023-02-14T13:14:15.458Z,18.77
2023-02-14T13:16:26.498Z,21.38
2023-02-14T13:18:55.022Z,20.83
2023-02-14T13:21:00.326Z,24.47
2023-02-14T13:23:39.727Z,19.95
2023-02-14T13:26:12.905Z,19.63
2023-02-14T13:28:16.562Z,18.33
2023-02-14T13:30:26.078Z,21.35
2023-02-14T13:32:33.620Z,23.73
2023-02-14T13:34:39.215Z,22.90
2023-02-14T13:36:42.471Z,20.98
2023-02-14T13:38:48.408Z,22.10
2023-02-14T13:40:51.101Z,24.52
2023-02-14T13:42:56.378Z,22.33
2023-02-14T13:44:58.854Z,23.50
2023-02-14T13:47:01.273Z,25.50
2023-02-14T13:49:03.719Z,22.13
2023-02-14T13:51:08.630Z,20.75
2023-02-14T13:53:14.054Z,27.33
2023-02-14T13:55:25.325Z,23.15
2023-02-14T13:57:40.779Z,23.27
2023-02-14T13:59:43.285Z,22.13
2023-02-14T14:01:50.682Z,19.98
2023-02-14T14:03:55.406Z,21.53
2023-02-14T14:06:12.686Z,18.15
2023-02-14T14:08:21.179Z,21.33
2023-02-14T14:11:03.182Z,22.30
2023-02-14T14:13:08.087Z,26.10
2023-02-14T14:15:13.312Z,21.47
2023-02-14T14:17:21.238Z,23.15
2023-02-14T14:19:23.658Z,22.15
2023-02-14T14:21:29.863Z,19.92
2023-02-14T14:23:42.446Z,19.02
2023-02-14T14:25:45.717Z,22.57
2023-02-14T14:27:48.147Z,24.00
2023-02-14T14:29:55.291Z,22.15
2023-02-14T14:31:58.267Z,22.23
2023-02-14T14:34:02.158Z,22.00
2023-02-14T14:36:08.167Z,20.37
2023-02-14T14:38:14.511Z,18.75
2023-02-14T14:40:30.073Z,20.63
2023-02-14T14:42:40.248Z,20.23
2023-02-14T14:45:03.941Z,24.02
2023-02-14T14:47:07.452Z,21.57
2023-02-14T14:49:11.242Z,18.92
2023-02-14T14:51:25.780Z,23.50
2023-02-14T14:54:06.793Z,25.90
2023-02-14T14:56:25.727Z,21.73
2023-02-14T14:58:30.851Z,54.10
2023-02-14T15:00:39.042Z,24.27
2023-02-14T15:02:42.154Z,25.02
2023-02-14T15:04:44.619Z,22.08
2023-02-14T15:06:48.800Z,25.50
2023-02-14T15:08:51.971Z,24.63
2023-02-14T15:11:03.070Z,25.20
2023-02-14T15:13:24.316Z,23.40
2023-02-14T15:15:26.789Z,23.77
2023-02-14T15:17:31.926Z,24.90
2023-02-14T15:19:44.216Z,23.43
2023-02-14T15:21:47.195Z,26.30
2023-02-14T15:23:50.514Z,26.00
2023-02-14T15:25:53.486Z,23.67
2023-02-14T15:27:57.317Z,23.92
2023-02-14T15:30:05.448Z,23.30
2023-02-14T15:32:10.483Z,20.13
2023-02-14T15:34:13.604Z,21.65
2023-02-14T15:36:19.569Z,21.80
2023-02-14T15:38:24.164Z,22.05
2023-02-14T15:40:28.990Z,22.43
2023-02-14T15:42:33.229Z,21.70
2023-02-14T15:44:35.655Z,23.48
2023-02-14T15:46:41.609Z,22.70
2023-02-14T15:48:44.747Z,23.63
2023-02-14T15:50:52.838Z,20.97
2023-02-14T15:52:56.953Z,23.92
2023-02-14T15:54:59.353Z,23.95
2023-02-14T15:57:02.344Z,26.40
2023-02-14T15:59:07.256Z,25.13
2023-02-14T16:01:09.840Z,24.73
2023-02-14T16:03:20.533Z,26.05
2023-02-14T16:05:24.802Z,22.77
2023-02-14T16:07:29.721Z,25.33
2023-02-14T16:09:36.041Z,25.45
2023-02-14T16:11:39.947Z,33.87
2023-02-14T16:13:46.929Z,26.20
2023-02-14T16:16:01.527Z,31.80
2023-02-14T16:18:15.853Z,24.90
2023-02-14T16:20:43.300Z,31.33
2023-02-14T16:22:45.803Z,32.60
2023-02-14T16:24:48.237Z,29.77
2023-02-14T16:26:50.659Z,31.75
2023-02-14T16:28:53.674Z,32.08
2023-02-14T16:31:02.801Z,33.35
2023-02-14T16:33:07.490Z,31.30
2023-02-14T16:35:18.480Z,32.75
2023-02-14T16:37:28.105Z,30.70
2023-02-14T16:39:32.931Z,37.80
2023-02-14T16:41:35.791Z,30.05
2023-02-14T16:43:38.408Z,25.83
2023-02-14T16:45:41.333Z,26.52
2023-02-14T16:47:45.847Z,28.23
2023-02-14T16:49:48.781Z,28.20
2023-02-14T16:51:52.440Z,24.55
2023-02-14T16:53:57.158Z,24.73
2023-02-14T16:55:59.800Z,26.13
2023-02-14T16:58:03.665Z,25.88
2023-02-14T17:00:07.403Z,24.33
2023-02-14T17:02:09.894Z,25.25
2023-02-14T17:04:12.430Z,25.07
2023-02-14T17:06:19.351Z,22.70
2023-02-14T17:08:22.011Z,25.15
2023-02-14T17:10:25.008Z,22.15
2023-02-14T17:12:31.000Z,26.77
2023-02-14T17:14:36.841Z,30.07
2023-02-14T17:16:39.461Z,27.42
2023-02-14T17:18:43.594Z,24.38
2023-02-14T17:20:46.127Z,24.20
2023-02-14T17:22:49.282Z,27.23
2023-02-14T17:24:51.701Z,27.00
2023-02-14T17:26:54.664Z,27.17
2023-02-14T17:28:57.069Z,24.25
2023-02-14T17:31:00.805Z,26.75
2023-02-14T17:33:03.635Z,29.17
2023-02-14T17:35:08.960Z,29.47
2023-02-14T17:37:11.812Z,27.15
2023-02-14T17:39:15.031Z,30.17
2023-02-14T17:41:22.962Z,32.08
2023-02-14T17:43:25.436Z,32.45
2023-02-14T17:45:28.166Z,31.97
2023-02-14T17:47:30.660Z,31.98
2023-02-14T17:49:33.408Z,33.60
2023-02-14T17:51:36.018Z,34.75
2023-02-14T17:53:38.563Z,32.38
2023-02-14T17:55:41.002Z,36.13
2023-02-14T17:57:43.434Z,37.20
2023-02-14T17:59:46.879Z,39.38
2023-02-14T18:01:49.319Z,39.90
2023-02-14T18:03:53.108Z,37.88
2023-02-14T18:05:58.716Z,27.40
2023-02-14T18:08:01.129Z,31.38
2023-02-14T18:10:03.667Z,30.42
2023-02-14T18:12:07.275Z,31.50
2023-02-14T18:14:10.084Z,32.22
2023-02-14T18:16:15.117Z,34.80
2023-02-14T18:18:17.750Z,31.80
2023-02-14T18:20:23.215Z,34.80
2023-02-14T18:22:28.428Z,33.10
2023-02-14T18:24:30.950Z,31.83
2023-02-14T18:26:36.092Z,28.17
2023-02-14T18:28:38.848Z,31.75
2023-02-14T18:30:41.234Z,33.92
2023-02-14T18:32:43.893Z,31.27
2023-02-14T18:34:46.413Z,31.10
2023-02-14T18:36:48.824Z,33.30
2023-02-14T18:38:51.294Z,34.47
2023-02-14T18:40:53.764Z,33.00
2023-02-14T18:42:56.202Z,33.10
2023-02-14T18:44:58.583Z,28.10
2023-02-14T18:47:01.957Z,31.67
2023-02-14T18:49:07.115Z,30.17
2023-02-14T18:51:15.498Z,34.08
2023-02-14T18:53:17.882Z,32.20
2023-02-14T18:55:20.291Z,31.25
2023-02-14T18:57:22.743Z,33.27
2023-02-14T18:59:25.235Z,31.15
2023-02-14T19:01:31.251Z,31.77
2023-02-14T19:03:33.635Z,32.33
2023-02-14T19:05:38.534Z,51.85
2023-02-14T19:07:41.001Z,30.17
2023-02-14T19:09:43.525Z,27.30
2023-02-14T19:11:46.451Z,29.85
2023-02-14T19:13:53.751Z,27.90
2023-02-14T19:15:56.999Z,29.05
2023-02-14T19:17:59.605Z,30.83
2023-02-14T19:20:08.412Z,29.55
2023-02-14T19:22:11.220Z,29.33
2023-02-14T19:24:16.454Z,31.52
2023-02-14T19:26:21.408Z,31.40
2023-02-14T19:28:24.105Z,27.37
2023-02-14T19:30:26.726Z,24.70
2023-02-14T19:32:29.266Z,29.13
2023-02-14T19:34:32.570Z,27.63
2023-02-14T19:36:39.195Z,28.40
2023-02-14T19:38:43.035Z,33.10
2023-02-14T19:40:45.474Z,34.55
2023-02-14T19:42:47.930Z,35.72
2023-02-14T19:44:50.361Z,32.20
2023-02-14T19:46:56.657Z,28.63
2023-02-14T19:49:00.015Z,32.00
2023-02-14T19:51:02.792Z,29.65
2023-02-14T19:53:05.603Z,26.67
2023-02-14T19:55:08.620Z,28.95
2023-02-14T19:57:14.162Z,33.65
2023-02-14T19:59:20.380Z,27.03
2023-02-14T20:01:31.835Z,25.27
2023-02-14T20:03:37.255Z,26.45
2023-02-14T20:05:39.890Z,26.88
2023-02-14T20:07:43.512Z,22.13
2023-02-14T20:09:45.986Z,25.03
2023-02-14T20:11:54.582Z,22.60
2023-02-14T20:13:57.450Z,24.17
2023-02-14T20:15:59.862Z,32.05
2023-02-14T20:18:02.650Z,24.77
2023-02-14T20:20:08.480Z,26.23
2023-02-14T20:22:13.322Z,22.45
2023-02-14T20:24:20.945Z,24.25
2023-02-14T20:26:23.621Z,23.65
2023-02-14T20:28:25.983Z,23.55
2023-02-14T20:30:28.579Z,25.10
2023-02-14T20:32:31.680Z,22.05
2023-02-14T20:34:34.309Z,22.88
2023-02-14T20:36:37.061Z,23.25
2023-02-14T20:38:39.593Z,20.77
2023-02-14T20:40:43.451Z,24.03
2023-02-14T20:42:48.730Z,24.20
2023-02-14T20:44:51.196Z,22.77
2023-02-14T20:46:54.975Z,22.98
2023-02-14T20:48:57.492Z,23.33
2023-02-14T20:51:10.159Z,24.53
2023-02-14T20:53:12.573Z,27.23
2023-02-14T20:55:15.047Z,24.02
2023-02-14T20:57:17.582Z,18.92
2023-02-14T20:59:26.333Z,20.67
2023-02-14T21:01:31.865Z,20.70
2023-02-14T21:03:36.051Z,28.90
2023-02-14T21:05:38.609Z,20.80
2023-02-14T21:07:41.077Z,24.65
2023-02-14T21:09:43.527Z,25.23
2023-02-14T21:11:45.987Z,26.17
2023-02-14T21:13:48.556Z,28.17
2023-02-14T21:15:51.156Z,21.83
2023-02-14T21:17:53.938Z,22.02
2023-02-14T21:19:56.381Z,25.25
2023-02-14T21:21:58.899Z,24.03
2023-02-14T21:24:09.437Z,28.30
2023-02-14T21:26:11.823Z,22.80
2023-02-14T21:28:14.355Z,22.02
2023-02-14T21:30:19.696Z,25.98
2023-02-14T21:32:25.344Z,22.47
2023-02-14T21:34:28.201Z,23.45
2023-02-14T21:36:33.064Z,24.70
2023-02-14T21:38:36.118Z,21.52
2023-02-14T21:40:38.604Z,23.63
2023-02-14T21:42:41.396Z,24.37
2023-02-14T21:45:02.358Z,26.48
2023-02-14T21:47:04.954Z,23.77
2023-02-14T21:49:26.114Z,27.30
2023-02-14T21:51:28.931Z,21.50
2023-02-14T21:53:31.709Z,23.77
2023-02-14T21:55:35.071Z,24.15
2023-02-14T21:57:39.928Z,24.13
2023-02-14T21:59:44.509Z,23.27
2023-02-14T22:01:47.167Z,27.05
2023-02-14T22:03:52.921Z,25.40
2023-02-14T22:06:07.758Z,28.17
2023-02-14T22:08:10.400Z,27.65
2023-02-14T22:10:19.517Z,27.63
2023-02-14T22:12:24.505Z,27.65
2023-02-14T22:14:29.466Z,28.57
2023-02-14T22:16:32.099Z,27.52
2023-02-14T22:18:35.176Z,24.17
2023-02-14T22:20:38.021Z,25.48
2023-02-14T22:22:40.791Z,27.85
2023-02-14T22:24:43.222Z,24.70
2023-02-14T22:26:45.810Z,24.95
2023-02-14T22:28:49.122Z,30.15
2023-02-14T22:30:51.635Z,27.52
2023-02-14T22:32:54.125Z,27.02
2023-02-14T22:34:56.561Z,28.23
2023-02-14T22:36:59.176Z,34.20
2023-02-14T22:39:01.691Z,28.63
2023-02-14T22:41:12.896Z,34.63
2023-02-14T22:43:15.780Z,33.05
2023-02-14T22:45:21.446Z,33.00
2023-02-14T22:47:24.362Z,30.85
2023-02-14T22:49:26.901Z,33.05
2023-02-14T22:51:37.312Z,37.35
2023-02-14T22:53:40.139Z,31.48
2023-02-14T22:55:42.848Z,33.67
2023-02-14T22:57:47.641Z,35.90
2023-02-14T22:59:55.203Z,33.63
2023-02-14T23:02:03.602Z,35.67
2023-02-14T23:04:06.532Z,35.13
2023-02-14T23:06:35.703Z,35.93
2023-02-14T23:08:57.035Z,29.17
2023-02-14T23:11:16.850Z,36.97
2023-02-14T23:16:21.804Z,34.42
2023-02-14T23:18:42.827Z,34.93
2023-02-14T23:21:21.675Z,35.15
2023-02-14T23:23:24.256Z,32.53
2023-02-14T23:25:29.030Z,31.10
2023-02-14T23:27:52.190Z,28.25
2023-02-14T23:29:54.686Z,29.83
2023-02-14T23:31:57.818Z,29.27
2023-02-14T23:34:00.537Z,32.95
2023-02-14T23:36:04.349Z,30.98
2023-02-14T23:38:06.873Z,28.25
2023-02-14T23:40:12.564Z,33.77
2023-02-14T23:42:16.280Z,34.47
2023-02-14T23:44:30.415Z,35.53
2023-02-14T23:46:32.864Z,30.67
2023-02-14T23:48:36.273Z,34.65
2023-02-14T23:50:41.072Z,27.87
2023-02-14T23:52:44.859Z,26.42
2023-02-14T23:54:47.448Z,30.85
2023-02-14T23:56:50.747Z,26.65
2023-02-14T23:58:53.548Z,30.98
